KFRR/FRR METAR and TAF weather

Enter ICAO airport designator
Station Type Date Time Source
KFRR METAR 2019/08/24 20:15 UTC NOAA

KFRR 242015Z AUTO 02008KT 10SM SCT060 OVC070 22/11 A3018 RMK AO1


Station Type Date Time Source
KFRR Decoded METAR 2019/08/24 20:15 UTC NOAA

Station name not available
Aug 24, 2019 - 04:15 PM EDT / 2019.08.24 2015 UTC
Wind: from the NNE (020 degrees) at 9 MPH (8 KT):0
Visibility: 10 mile(s):0
Sky conditions: overcast
Temperature: 71 F (22 C)
Dew Point: 51 F (11 C)
Relative Humidity: 49%
Pressure (altimeter): 30.18 in. Hg (1022 hPa)
ob: KFRR 242015Z AUTO 02008KT 10SM SCT060 OVC070 22/11 A3018 RMK AO1
cycle: 20

Station Type Date Time Source
KFRR TAF UTC NOAA

Error!

Example: see airport list